Time;durP1;ratioP1;P1;durP2;ratioP2;P2;SDS_P1;SDS_P2;PMS_P1;PMS_P2;Temp;Humidity;BMP_temperature;BMP_pressure;BME280_temperature;BME280_humidity;BME280_pressure;Samples;Min_cycle;Max_cycle;Signal;HPM_P1;HPM_P2
2021/03/21 00:00:14;;;;;;;13.13;9.98;;;;;;;-6.19;64.08;96907.69;1768228;79;21137;-84
2021/03/21 00:02:42;;;;;;;13.43;9.75;;;;;;;-6.23;64.06;96908.72;1758427;78;21141;-84
2021/03/21 00:05:09;;;;;;;12.03;9.50;;;;;;;-6.23;64.12;96902.39;1756315;80;21311;-84
2021/03/21 00:07:35;;;;;;;11.43;8.68;;;;;;;-6.20;64.22;96907.76;1758512;79;21141;-85
2021/03/21 00:10:04;;;;;;;12.33;8.70;;;;;;;-6.24;64.15;96899.48;1758018;79;21236;-85
2021/03/21 00:12:31;;;;;;;9.58;8.65;;;;;;;-6.31;64.26;96882.13;1756008;79;21130;-84
2021/03/21 00:14:57;;;;;;;11.10;8.65;;;;;;;-6.28;64.40;96894.19;1753644;79;21251;-84
2021/03/21 00:17:23;;;;;;;10.23;8.30;;;;;;;-6.28;64.36;96889.58;1753872;79;21107;-82
2021/03/21 00:19:50;;;;;;;12.90;8.88;;;;;;;-6.30;64.32;96882.06;1752925;79;21153;-82
2021/03/21 00:22:16;;;;;;;11.97;8.13;;;;;;;-6.29;64.40;96886.23;1751401;79;21134;-82
2021/03/21 00:24:42;;;;;;;11.75;8.83;;;;;;;-6.31;64.35;96875.81;1738518;80;21141;-82
2021/03/21 00:27:08;;;;;;;9.63;8.68;;;;;;;-6.32;64.27;96872.45;1768652;79;21098;-82
2021/03/21 00:29:34;;;;;;;11.35;9.05;;;;;;;-6.31;64.42;96867.78;1749913;79;21127;-82
2021/03/21 00:32:00;;;;;;;11.60;9.60;;;;;;;-6.30;64.28;96869.41;1755056;79;21992;-82
2021/03/21 00:34:26;;;;;;;11.75;9.33;;;;;;;-6.35;64.30;96867.51;1749160;80;21125;-82
2021/03/21 00:36:52;;;;;;;12.80;9.25;;;;;;;-6.37;64.25;96863.78;1751247;79;21344;-82
2021/03/21 00:39:18;;;;;;;13.60;9.68;;;;;;;-6.40;63.99;96854.26;1750415;79;21337;-82
2021/03/21 00:41:44;;;;;;;10.70;9.13;;;;;;;-6.40;63.99;96854.26;1737029;80;21161;-82
2021/03/21 00:44:10;;;;;;;10.78;8.43;;;;;;;-6.44;64.13;96851.05;1758187;79;21372;-82
2021/03/21 00:46:36;;;;;;;9.90;8.45;;;;;;;-6.47;64.18;96850.37;1758481;79;21154;-82
2021/03/21 00:49:03;;;;;;;11.40;7.65;;;;;;;-6.49;64.04;96849.17;1750609;79;21110;-82
2021/03/21 00:51:29;;;;;;;11.60;8.45;;;;;;;-6.51;63.95;96842.10;1755034;79;21114;-82
2021/03/21 00:53:55;;;;;;;8.63;7.55;;;;;;;-6.47;63.88;96844.86;1752373;79;21333;-82
2021/03/21 00:56:34;;;;;;;9.75;8.63;;;;;;;-6.42;64.01;96842.95;1753059;79;21341;-82
2021/03/21 00:59:00;;;;;;;11.88;8.03;;;;;;;-6.41;63.77;96840.80;1753257;79;21857;-82
2021/03/21 01:01:27;;;;;;;8.88;7.80;;;;;;;-6.41;63.62;96839.97;1749619;79;21104;-82
2021/03/21 01:03:53;;;;;;;9.05;7.92;;;;;;;-6.45;63.25;96831.70;1753155;80;21118;-82
2021/03/21 01:06:20;;;;;;;8.03;6.90;;;;;;;-6.44;63.46;96831.27;1756802;79;21138;-82
2021/03/21 01:08:46;;;;;;;9.48;7.97;;;;;;;-6.45;63.13;96822.86;1756675;79;21102;-82
2021/03/21 01:11:18;;;;;;;8.70;7.80;;;;;;;-6.48;62.72;96817.13;1756410;79;21146;-82
2021/03/21 01:13:44;;;;;;;7.80;6.58;;;;;;;-6.50;62.80;96812.14;1758083;79;21116;-82
2021/03/21 01:16:27;;;;;;;7.50;6.80;;;;;;;-6.52;63.20;96811.80;1701421;82;21156;-82
2021/03/21 01:18:53;;;;;;;7.30;6.60;;;;;;;-6.51;62.74;96807.13;1756397;79;21456;-82
2021/03/21 01:21:23;;;;;;;7.72;6.92;;;;;;;-6.47;62.59;96803.15;1761877;79;21161;-80
2021/03/21 01:23:49;;;;;;;7.65;6.87;;;;;;;-6.49;62.61;96794.81;1757688;79;21364;-80
2021/03/21 01:26:18;;;;;;;7.03;6.40;;;;;;;-6.44;62.22;96795.42;1754075;79;21138;-80
2021/03/21 01:28:44;;;;;;;8.65;7.53;;;;;;;-6.43;62.28;96784.86;1759572;79;21264;-80
2021/03/21 01:31:14;;;;;;;7.53;6.75;;;;;;;-6.47;61.76;96787.16;1758284;79;21114;-80
2021/03/21 01:33:40;;;;;;;6.45;5.85;;;;;;;-6.47;61.93;96783.37;1755865;79;21344;-80
2021/03/21 01:36:11;;;;;;;7.45;6.75;;;;;;;-6.51;61.68;96783.95;1755542;79;21269;-81
2021/03/21 01:38:37;;;;;;;7.60;6.93;;;;;;;-6.51;61.51;96777.63;1757378;79;21111;-82
2021/03/21 01:41:05;;;;;;;7.53;6.60;;;;;;;-6.44;61.39;96772.67;1756758;79;21138;-82
2021/03/21 01:43:35;;;;;;;8.20;6.05;;;;;;;-6.39;61.76;96773.72;1756997;79;21145;-82
2021/03/21 01:46:01;;;;;;;9.58;7.15;;;;;;;-6.33;60.99;96763.34;1760043;79;21142;-82
2021/03/21 01:48:50;;;;;;;8.18;6.22;;;;;;;-6.29;61.18;96757.70;1754702;79;21126;-82
2021/03/21 01:51:29;;;;;;;6.62;6.03;;;;;;;-6.40;61.08;96731.17;1703372;82;21270;-81
2021/03/21 01:53:57;;;;;;;8.28;7.47;;;;;;;-6.20;60.94;96753.02;1692425;82;21481;-82
2021/03/21 01:56:24;;;;;;;8.03;7.15;;;;;;;-6.17;60.65;96750.38;1692073;82;21124;-83
2021/03/21 01:58:56;;;;;;;11.33;7.22;;;;;;;-6.13;60.83;96748.08;1758331;79;21126;-82
2021/03/21 02:01:26;;;;;;;7.12;6.10;;;;;;;-6.09;60.51;96746.22;1754104;79;21323;-83
2021/03/21 02:03:52;;;;;;;7.62;6.85;;;;;;;-6.03;60.30;96738.77;1761758;79;21082;-82
2021/03/21 02:06:40;;;;;;;10.38;6.47;;;;;;;-5.98;60.27;96736.88;1764125;79;21133;-82
2021/03/21 02:09:17;;;;;;;12.60;8.33;;;;;;;-5.95;60.08;96735.01;1763314;79;21114;-82
2021/03/21 02:12:04;;;;;;;9.90;7.90;;;;;;;-5.93;60.23;96718.04;1761606;79;21172;-83
2021/03/21 02:14:54;;;;;;;11.83;6.72;;;;;;;-5.86;60.25;96719.38;1764384;80;21859;-82
2021/03/21 02:17:38;;;;;;;9.30;6.97;;;;;;;-5.82;60.41;96717.06;1762815;79;21258;-83
2021/03/21 02:20:46;;;;;;;7.20;6.45;;;;;;;-5.79;60.52;96707.23;1759423;79;21479;-82
2021/03/21 02:23:42;;;;;;;9.30;7.78;;;;;;;-5.76;60.30;96710.88;1763682;79;22159;-82
2021/03/21 02:26:31;;;;;;;11.12;7.05;;;;;;;-5.70;60.64;96700.44;1763414;80;21130;-81
2021/03/21 02:29:38;;;;;;;7.65;6.28;;;;;;;-5.70;60.57;96690.31;1760749;79;21115;-82
2021/03/21 02:32:31;;;;;;;8.65;6.17;;;;;;;-5.70;60.58;96686.52;1761162;79;21208;-82
2021/03/21 02:35:17;;;;;;;8.15;5.92;;;;;;;-5.67;60.50;96682.59;1760658;79;21337;-82
2021/03/21 02:38:04;;;;;;;6.95;6.30;;;;;;;-5.64;60.69;96684.16;1759728;79;21252;-80
2021/03/21 02:40:38;;;;;;;9.10;6.58;;;;;;;-5.64;60.77;96675.30;1765404;79;21150;-80
2021/03/21 02:43:24;;;;;;;7.75;6.95;;;;;;;-5.65;60.68;96669.86;1763123;79;21116;-80
2021/03/21 02:45:52;;;;;;;8.18;6.55;;;;;;;-5.67;60.67;96664.88;1767006;79;21118;-80
2021/03/21 02:48:25;;;;;;;7.87;6.47;;;;;;;-5.68;60.83;96656.09;1708828;82;21170;-80
2021/03/21 02:50:59;;;;;;;6.97;6.37;;;;;;;-5.67;60.98;96649.69;1761477;79;21472;-80
2021/03/21 02:53:44;;;;;;;7.70;6.72;;;;;;;-5.62;61.13;96648.19;1762016;79;21280;-80
2021/03/21 02:56:14;;;;;;;6.80;6.00;;;;;;;-5.58;61.13;96649.66;1763768;79;21135;-80
2021/03/21 02:58:43;;;;;;;6.03;5.40;;;;;;;-5.55;61.11;96643.17;1759151;79;21304;-80
2021/03/21 03:01:26;;;;;;;6.40;5.80;;;;;;;-5.56;61.15;96639.83;1761144;79;21157;-80
2021/03/21 03:03:53;;;;;;;6.05;5.45;;;;;;;-5.51;61.14;96631.57;1759123;80;21161;-81
2021/03/21 03:06:44;;;;;;;7.70;6.10;;;;;;;-5.46;61.01;96630.06;1757515;79;21154;-81
2021/03/21 03:09:21;;;;;;;5.28;4.70;;;;;;;-5.44;60.98;96621.48;1732574;80;21169;-80
2021/03/21 03:12:01;;;;;;;7.33;5.92;;;;;;;-5.39;61.02;96616.63;1756106;79;21082;-80
2021/03/21 03:14:35;;;;;;;6.70;5.58;;;;;;;-5.35;61.11;96615.59;1756294;79;21325;-80
2021/03/21 03:17:21;;;;;;;7.47;6.87;;;;;;;-5.33;60.89;96611.27;1758215;79;21345;-81
2021/03/21 03:20:16;;;;;;;7.37;5.72;;;;;;;-5.32;60.70;96599.78;1760290;79;21111;-80
2021/03/21 03:23:20;;;;;;;6.60;6.00;;;;;;;-5.28;60.92;96606.32;1760174;79;21249;-80
2021/03/21 03:25:57;;;;;;;6.42;5.58;;;;;;;-5.26;60.92;96594.84;1760850;79;21096;-80
2021/03/21 03:28:47;;;;;;;5.53;4.62;;;;;;;-5.23;60.46;96590.88;1755134;79;21135;-80
2021/03/21 03:31:40;;;;;;;6.53;5.93;;;;;;;-5.17;60.57;96582.52;1814572;75;38167;-80
2021/03/21 03:34:06;;;;;;;7.08;5.30;;;;;;;-5.12;60.54;96582.27;1842600;76;21117;-80
2021/03/21 03:36:33;;;;;;;5.37;4.87;;;;;;;-5.11;60.23;96569.16;1842084;76;21128;-80
2021/03/21 03:39:00;;;;;;;5.15;4.55;;;;;;;-5.05;60.19;96573.44;1845624;76;21904;-80
2021/03/21 03:41:48;;;;;;;4.78;4.37;;;;;;;-5.05;59.90;96558.69;1845793;76;21348;-80
2021/03/21 03:44:26;;;;;;;6.90;5.08;;;;;;;-5.04;59.97;96564.14;1844257;76;21837;-80
2021/03/21 03:47:19;;;;;;;6.22;4.72;;;;;;;-5.06;60.25;96554.06;1848412;76;21251;-80
2021/03/21 03:49:59;;;;;;;5.55;4.85;;;;;;;-5.06;59.95;96543.93;1848048;76;21316;-80
2021/03/21 03:52:34;;;;;;;5.12;4.62;;;;;;;-5.05;59.81;96538.41;1843483;76;21089;-80
2021/03/21 03:55:14;;;;;;;5.67;5.10;;;;;;;-5.04;59.94;96536.27;1846584;76;21093;-80
2021/03/21 03:57:45;;;;;;;7.67;5.50;;;;;;;-5.02;60.12;96537.82;1841940;76;21125;-80
2021/03/21 04:00:17;;;;;;;5.17;4.42;;;;;;;-5.05;60.20;96526.56;1843912;76;21224;-80
2021/03/21 04:03:25;;;;;;;6.62;5.92;;;;;;;-5.08;60.22;96525.91;1844270;76;21550;-79
2021/03/21 04:06:00;;;;;;;5.20;4.70;;;;;;;-5.10;60.34;96526.00;1783841;79;21120;-80
2021/03/21 04:08:35;;;;;;;6.62;5.85;;;;;;;-5.11;60.31;96519.30;1780847;80;21126;-80
2021/03/21 04:11:19;;;;;;;5.90;4.35;;;;;;;-5.11;60.51;96514.69;1788430;79;21123;-80
2021/03/21 04:13:56;;;;;;;5.55;4.90;;;;;;;-5.14;60.45;96505.09;1807973;78;21132;-80
2021/03/21 04:16:29;;;;;;;7.97;6.08;;;;;;;-5.11;60.45;96501.56;1749190;79;21286;-80
2021/03/21 04:19:01;;;;;;;5.12;4.60;;;;;;;-5.10;60.45;96495.59;1781304;80;21136;-80
2021/03/21 04:21:51;;;;;;;5.65;5.00;;;;;;;-5.07;60.36;96493.34;1787413;79;21107;-79
2021/03/21 04:24:36;;;;;;;4.87;4.30;;;;;;;-5.08;60.47;96482.39;1809251;78;21577;-80
2021/03/21 04:27:16;;;;;;;4.67;4.28;;;;;;;-5.10;60.42;96482.93;1809738;78;21288;-80
2021/03/21 04:29:51;;;;;;;8.03;5.58;;;;;;;-5.10;60.51;96480.39;1808219;78;21289;-80
2021/03/21 04:32:24;;;;;;;5.97;5.37;;;;;;;-5.09;60.46;96480.76;1799353;78;21121;-81
2021/03/21 04:34:53;;;;;;;6.62;5.05;;;;;;;-5.09;60.49;96476.95;1807922;78;21231;-80
2021/03/21 04:37:19;;;;;;;3.83;3.52;;;;;;;-5.08;60.48;96479.05;1785989;79;21275;-80
2021/03/21 04:39:45;;;;;;;5.42;4.83;;;;;;;-5.07;60.28;96462.94;1749593;79;21109;-80
2021/03/21 04:42:18;;;;;;;5.47;4.97;;;;;;;-5.04;60.45;96473.74;1781600;79;21246;-80
2021/03/21 04:44:59;;;;;;;5.83;5.30;;;;;;;-5.04;60.38;96465.33;1781740;80;21127;-80
2021/03/21 04:47:31;;;;;;;6.70;4.90;;;;;;;-4.97;60.22;96462.80;1801654;78;21134;-80
2021/03/21 04:49:57;;;;;;;9.08;5.37;;;;;;;-4.95;60.02;96461.81;1842039;77;21105;-80
2021/03/21 04:52:46;;;;;;;4.40;4.00;;;;;;;-4.92;59.82;96455.75;1808729;77;21139;-81
2021/03/21 04:55:30;;;;;;;4.37;4.05;;;;;;;-4.88;59.73;96452.17;1843374;77;21088;-80
2021/03/21 04:57:57;;;;;;;7.37;5.30;;;;;;;-4.85;59.85;96459.60;1838743;77;21070;-80
2021/03/21 05:00:29;;;;;;;6.22;5.17;;;;;;;-4.85;59.83;96445.20;1811350;77;22157;-81
2021/03/21 05:03:00;;;;;;;6.17;4.33;;;;;;;-4.81;59.79;96450.09;1842942;77;21078;-80
2021/03/21 05:05:33;;;;;;;5.67;4.85;;;;;;;-4.82;59.30;96440.41;1837471;77;21470;-80
2021/03/21 05:08:18;;;;;;;5.58;5.08;;;;;;;-4.77;59.53;96437.61;1840801;77;21110;-80
2021/03/21 05:10:47;;;;;;;5.25;4.60;;;;;;;-4.72;59.21;96436.47;1839309;77;21225;-81
2021/03/21 05:13:33;;;;;;;4.42;4.03;;;;;;;-4.69;59.05;96428.69;1842118;77;21097;-81
2021/03/21 05:16:13;;;;;;;4.40;4.00;;;;;;;-4.66;58.70;96434.84;1806249;77;21434;-80
2021/03/21 05:19:14;;;;;;;6.03;4.20;;;;;;;-4.60;59.04;96437.47;1843775;77;21263;-81
2021/03/21 05:21:56;;;;;;;4.85;4.33;;;;;;;-4.57;58.85;96430.95;1836500;77;21132;-80
2021/03/21 05:24:39;;;;;;;5.33;4.62;;;;;;;-4.52;58.97;96428.17;1838258;77;21090;-80
2021/03/21 05:27:27;;;;;;;5.78;4.47;;;;;;;-4.46;58.62;96432.42;1840273;77;21235;-81
2021/03/21 05:30:15;;;;;;;4.72;4.17;;;;;;;-4.38;58.73;96426.47;1836968;77;21472;-81
2021/03/21 05:32:42;;;;;;;5.22;4.60;;;;;;;-4.31;58.09;96416.31;1829054;77;21221;-80
2021/03/21 05:35:13;;;;;;;4.15;3.75;;;;;;;-4.26;58.35;96409.69;1832936;77;21125;-80
2021/03/21 05:37:53;;;;;;;6.10;4.17;;;;;;;-4.20;58.10;96409.80;1831366;77;21165;-80
2021/03/21 05:41:04;;;;;;;4.60;3.80;;;;;;;-4.16;58.02;96401.91;1803026;77;21243;-80
2021/03/21 05:43:42;;;;;;;3.85;3.52;;;;;;;-4.08;57.35;96403.52;1789675;77;21137;-81
2021/03/21 05:46:45;;;;;;;4.03;3.62;;;;;;;-3.94;57.48;96392.55;1830688;77;21141;-81
2021/03/21 05:49:26;;;;;;;;;;;;;;;-3.87;56.81;96393.83;1837179;77;21232;-81
2021/03/21 05:52:33;;;;;;;4.90;4.12;;;;;;;-3.74;56.33;96386.28;1831697;77;20146;-81
2021/03/21 05:55:16;;;;;;;4.12;3.70;;;;;;;-3.69;56.16;96383.81;1831571;77;21110;-81
2021/03/21 05:58:23;;;;;;;4.50;4.10;;;;;;;-3.62;56.17;96386.77;1830259;77;21133;-81
2021/03/21 06:01:26;;;;;;;3.92;3.52;;;;;;;-3.51;56.31;96389.93;1832025;77;21540;-80
2021/03/21 06:04:10;;;;;;;7.22;4.60;;;;;;;-3.34;55.79;96378.25;1790937;78;21113;-82
2021/03/21 06:07:17;;;;;;;4.65;4.17;;;;;;;-3.22;55.96;96378.76;1776155;79;21369;-80
2021/03/21 06:10:20;;;;;;;4.15;3.70;;;;;;;-3.02;55.69;96380.84;1783288;79;21419;-82
2021/03/21 06:13:28;;;;;;;3.85;3.50;;;;;;;-2.71;56.12;96378.85;1780345;79;21272;-82
2021/03/21 06:16:15;;;;;;;6.85;4.33;;;;;;;-2.52;55.28;96369.55;1780746;79;21086;-82
2021/03/21 06:19:20;;;;;;;5.70;5.10;;;;;;;-2.40;55.78;96359.83;1741436;79;21122;-82
2021/03/21 06:21:58;;;;;;;6.30;4.55;;;;;;;-2.25;54.61;96352.44;1771742;80;21126;-82
2021/03/21 06:24:45;;;;;;;5.90;4.35;;;;;;;-2.06;55.94;96358.37;1764509;80;21131;-81
2021/03/21 06:27:19;;;;;;;8.95;4.20;;;;;;;-1.93;55.34;96348.97;1793072;78;21130;-81
2021/03/21 06:30:24;;;;;;;5.30;3.75;;;;;;;-1.90;54.83;96359.41;1794165;78;21126;-80
2021/03/21 06:33:10;;;;;;;4.50;3.72;;;;;;;-1.87;54.32;96354.91;1803366;79;21232;-81
2021/03/21 06:36:08;;;;;;;7.80;4.35;;;;;;;-1.89;53.95;96338.11;1785096;80;21114;-81
2021/03/21 06:38:55;;;;;;;5.55;4.00;;;;;;;-1.87;54.75;96335.80;1769934;80;21248;-81
2021/03/21 06:42:17;;;;;;;5.78;4.15;;;;;;;-1.79;54.60;96330.62;1783259;80;21148;-81
2021/03/21 06:45:21;;;;;;;3.40;3.00;;;;;;;-1.77;54.91;96333.44;1789112;79;21103;-81
2021/03/21 06:48:18;;;;;;;6.03;4.20;;;;;;;-1.82;54.05;96331.19;1783699;79;21120;-82
2021/03/21 06:51:12;;;;;;;4.60;4.10;;;;;;;-1.93;54.31;96322.23;1770679;80;21248;-83
2021/03/21 06:54:19;;;;;;;4.67;3.87;;;;;;;-1.92;54.24;96317.95;1784201;80;21141;-81
2021/03/21 06:57:22;;;;;;;5.90;4.95;;;;;;;-1.83;54.01;96313.02;1787789;79;21129;-82
2021/03/21 07:00:40;;;;;;;7.45;4.65;;;;;;;-1.72;54.84;96312.27;1784497;79;21110;-81
2021/03/21 07:03:26;;;;;;;3.98;3.22;;;;;;;-1.63;54.43;96310.80;1789422;79;21077;-80
2021/03/21 07:06:36;;;;;;;6.03;3.77;;;;;;;-1.68;53.62;96306.49;1783142;79;21489;-81
2021/03/21 07:09:22;;;;;;;6.58;4.55;;;;;;;-1.66;54.03;96309.28;1772485;80;21130;-81
2021/03/21 07:12:38;;;;;;;5.55;4.62;;;;;;;-1.60;54.02;96314.42;1792320;79;21129;-80
2021/03/21 07:15:43;;;;;;;7.65;4.28;;;;;;;-1.52;53.72;96311.67;1784771;79;21109;-82
2021/03/21 07:18:45;;;;;;;6.05;3.98;;;;;;;-1.38;54.11;96313.23;1790191;79;21279;-81
2021/03/21 07:21:33;;;;;;;5.42;3.67;;;;;;;-1.33;53.87;96308.61;1785032;79;21509;-80
2021/03/21 07:24:23;;;;;;;6.97;4.92;;;;;;;-1.38;53.35;96295.39;1789716;79;21251;-81
2021/03/21 07:27:28;;;;;;;7.85;6.80;;;;;;;-1.32;54.00;96300.03;1784904;79;21100;-80
2021/03/21 07:29:56;;;;;;;6.20;3.95;;;;;;;-1.08;54.78;96299.20;1782803;80;21968;-81
2021/03/21 07:32:52;;;;;;;6.72;4.87;;;;;;;-1.01;53.50;96296.08;1802914;79;21146;-81
2021/03/21 07:35:51;;;;;;;7.58;5.35;;;;;;;-0.96;53.20;96294.02;1840507;77;21291;-82
2021/03/21 07:38:48;;;;;;;6.15;3.92;;;;;;;-0.90;53.12;96283.81;1845604;77;21102;-82
2021/03/21 07:41:58;;;;;;;15.25;12.75;;;;;;;-0.91;52.54;96271.52;1835584;77;22263;-80
2021/03/21 07:45:02;;;;;;;7.67;5.70;;;;;;;-0.85;53.35;96275.81;1816857;79;21101;-81
2021/03/21 07:47:46;;;;;;;17.32;13.10;;;;;;;-0.77;52.83;96275.61;1788490;78;21229;-81
2021/03/21 07:50:30;;;;;;;17.20;14.95;;;;;;;-0.68;53.33;96267.71;1819327;78;21112;-81
2021/03/21 07:53:24;;;;;;;6.37;4.67;;;;;;;-0.61;53.63;96259.95;1820859;79;21091;-81
2021/03/21 07:55:59;;;;;;;7.05;4.67;;;;;;;-0.63;53.12;96266.45;1817614;77;21108;-81
2021/03/21 07:58:47;;;;;;;12.45;8.68;;;;;;;-0.72;52.98;96256.93;1819020;77;21345;-82
2021/03/21 08:01:13;;;;;;;13.13;10.68;;;;;;;-0.70;53.16;96252.52;1817862;78;21100;-80
2021/03/21 08:04:22;;;;;;;12.88;9.30;;;;;;;-0.63;53.41;96257.53;1819213;79;21125;-80
2021/03/21 08:07:01;;;;;;;17.50;11.00;;;;;;;-0.62;52.58;96255.78;1820186;78;21109;-81
2021/03/21 08:09:32;;;;;;;11.93;7.70;;;;;;;-0.67;52.41;96243.35;1819337;78;21257;-79
2021/03/21 08:12:22;;;;;;;14.53;9.25;;;;;;;-0.63;52.01;96243.49;1817475;78;21251;-80
2021/03/21 08:14:59;;;;;;;9.65;6.70;;;;;;;-0.66;52.77;96236.04;1816628;79;21107;-80
2021/03/21 08:17:37;;;;;;;10.03;7.70;;;;;;;-0.64;52.18;96235.48;1815770;79;21403;-80
2021/03/21 08:20:18;;;;;;;7.95;6.17;;;;;;;-0.57;52.02;96221.78;1816022;77;21679;-81
2021/03/21 08:22:44;;;;;;;10.10;6.65;;;;;;;-0.51;52.44;96230.70;1817275;79;21236;-80
2021/03/21 08:25:29;;;;;;;36.17;22.00;;;;;;;-0.45;52.37;96223.88;1819087;78;21084;-80
2021/03/21 08:27:55;;;;;;;20.48;11.60;;;;;;;-0.49;51.94;96216.92;1817015;78;21415;-80
2021/03/21 08:30:27;;;;;;;45.08;24.35;;;;;;;-0.47;51.33;96202.77;1818726;78;21304;-80
2021/03/21 08:32:58;;;;;;;72.67;37.05;;;;;;;-0.40;52.41;96211.09;1825728;78;21479;-80
2021/03/21 08:35:29;;;;;;;48.10;29.50;;;;;;;-0.31;52.20;96198.91;1825281;77;21219;-79
2021/03/21 08:37:57;;;;;;;11.60;8.85;;;;;;;-0.26;52.39;96208.75;1827054;77;21128;-81
2021/03/21 08:40:36;;;;;;;11.90;8.35;;;;;;;-0.13;51.81;96203.50;1827748;78;21308;-79
2021/03/21 08:43:23;;;;;;;7.30;5.78;;;;;;;-0.01;52.71;96199.50;1826320;78;21109;-78
2021/03/21 08:45:58;;;;;;;14.58;8.78;;;;;;;0.16;51.98;96193.52;1827436;77;21348;-80
2021/03/21 08:48:38;;;;;;;10.85;7.20;;;;;;;0.33;52.79;96188.37;1767718;78;21358;-80
2021/03/21 08:51:15;;;;;;;13.58;8.93;;;;;;;0.48;51.97;96187.10;1826723;77;21106;-81
2021/03/21 08:54:03;;;;;;;14.05;9.63;;;;;;;0.60;51.82;96183.55;1825075;78;21083;-82
2021/03/21 08:56:36;;;;;;;28.07;17.07;;;;;;;0.74;51.74;96179.88;1814547;77;21149;-83
2021/03/21 08:59:37;;;;;;;37.10;26.77;;;;;;;0.76;51.10;96183.11;1797835;77;21081;-82
2021/03/21 09:02:20;;;;;;;12.78;9.63;;;;;;;0.76;52.06;96178.81;1821981;78;21062;-82
2021/03/21 09:41:09;;;;;;;;;;;;;;;;;;;;;
2021/03/21 09:43:48;;;;;;;8.53;5.72;;;;;;;2.10;53.97;96184.00;1730823;80;21117;-82
2021/03/21 09:47:02;;;;;;;;;;;;;;;;;;;;;
2021/03/21 09:50:09;;;;;;;;;;;;;;;;;;;;;
2021/03/21 10:09:25;;;;;;;11.00;7.50;;;;;;;1.77;57.77;96153.63;1766012;80;22285;-81
2021/03/21 10:12:23;;;;;;;;;;;;;;;;;;;;;
2021/03/21 10:14:59;;;;;;;9.55;6.92;;;;;;;1.23;58.20;96161.73;1653251;86;21188;-80
2021/03/21 10:28:47;;;;;;;;;;;;;;;;;;;;;
2021/03/21 10:31:35;;;;;;;8.55;5.90;;;;;;;0.43;61.03;96138.92;1809052;77;23033;-81
2021/03/21 10:34:10;;;;;;;8.60;6.08;;;;;;;0.36;61.34;96142.11;1777370;79;21180;-82
2021/03/21 10:36:44;;;;;;;9.45;6.15;;;;;;;0.38;61.66;96142.80;1773528;80;21152;-82
2021/03/21 10:39:24;;;;;;;10.72;6.78;;;;;;;0.51;62.02;96133.19;1772010;80;21143;-80
2021/03/21 10:42:07;;;;;;;8.83;6.58;;;;;;;0.56;61.48;96127.23;1767325;79;21086;-82
2021/03/21 10:44:43;;;;;;;7.20;4.90;;;;;;;0.50;61.62;96118.33;1784558;79;21232;-82
2021/03/21 10:47:30;;;;;;;9.00;5.70;;;;;;;0.41;62.31;96120.34;1767620;80;21108;-82
2021/03/21 10:49:59;;;;;;;8.08;6.53;;;;;;;0.36;61.97;96103.77;1774597;79;21136;-82
2021/03/21 10:52:32;;;;;;;8.50;6.70;;;;;;;0.42;62.54;96103.26;1767567;80;21106;-82
2021/03/21 10:55:17;;;;;;;8.30;6.10;;;;;;;0.50;62.50;96099.15;1767850;80;21477;-81
2021/03/21 10:57:54;;;;;;;7.60;5.70;;;;;;;0.68;61.76;96098.56;1766565;79;21284;-82
2021/03/21 11:00:31;;;;;;;8.90;6.55;;;;;;;0.64;61.80;96098.45;1773094;80;21136;-83
2021/03/21 11:03:10;;;;;;;10.70;6.10;;;;;;;0.66;61.26;96090.21;1775569;79;21145;-82
2021/03/21 11:05:43;;;;;;;9.43;6.28;;;;;;;0.72;61.70;96105.03;1775259;79;21123;-82
2021/03/21 11:08:27;;;;;;;9.15;5.90;;;;;;;0.86;60.82;96102.14;1735073;80;21328;-81
2021/03/21 11:10:55;;;;;;;9.63;5.90;;;;;;;0.90;61.21;96094.54;1777089;79;21593;-82
2021/03/21 11:13:32;;;;;;;7.87;7.05;;;;;;;1.05;60.16;96088.12;1774189;79;21145;-83
2021/03/21 11:15:59;;;;;;;7.10;5.75;;;;;;;1.03;60.49;96091.77;1775422;79;22048;-83
2021/03/21 11:18:30;;;;;;;9.20;5.97;;;;;;;1.16;60.30;96084.67;1771616;79;21191;-82
2021/03/21 11:21:20;;;;;;;9.30;6.95;;;;;;;1.24;60.24;96091.20;1782001;79;21137;-81
2021/03/21 11:24:01;;;;;;;9.65;6.70;;;;;;;1.21;60.10;96087.64;1774283;79;21086;-82
2021/03/21 11:26:34;;;;;;;9.90;6.55;;;;;;;1.19;60.45;96081.38;1773904;79;21375;-83
2021/03/21 11:29:09;;;;;;;6.70;4.97;;;;;;;1.19;60.21;96087.77;1771459;79;21323;-83
2021/03/21 11:34:33;;;;;;;20.62;13.85;;;;;;;1.31;60.57;96075.68;1780908;79;22545;-82
2021/03/21 11:37:15;;;;;;;13.45;8.80;;;;;;;1.32;60.38;96081.61;1741819;80;21212;-82
2021/03/21 11:42:37;;;;;;;12.00;8.83;;;;;;;1.46;59.92;96073.08;1815958;76;22807;-81
2021/03/21 11:45:26;;;;;;;12.43;9.98;;;;;;;1.54;59.87;96073.67;1806158;78;21418;-81
2021/03/21 11:47:57;;;;;;;12.13;9.00;;;;;;;1.57;59.73;96067.00;1804188;78;21289;-82
2021/03/21 11:50:28;;;;;;;7.45;6.62;;;;;;;1.40;59.42;96077.91;1800763;78;21431;-82
2021/03/21 11:52:54;;;;;;;9.95;6.25;;;;;;;1.28;59.53;96066.96;1808145;78;21050;-81
2021/03/21 11:55:27;;;;;;;7.85;5.08;;;;;;;1.22;59.93;96061.57;1800206;78;21089;-81
2021/03/21 11:58:02;;;;;;;;;;;;;;;1.20;59.37;96053.55;1812735;78;21232;-81
2021/03/21 12:00:34;;;;;;;11.80;8.10;;;;;;;1.27;59.91;96067.09;1799475;78;20163;-81
2021/03/21 12:03:11;;;;;;;17.73;12.58;;;;;;;1.18;59.55;96069.52;1808539;78;21098;-81
2021/03/21 12:05:41;;;;;;;16.32;11.38;;;;;;;1.08;59.93;96076.35;1825280;78;21301;-81
2021/03/21 12:08:37;;;;;;;8.28;6.12;;;;;;;1.06;60.53;96070.55;1812663;78;21101;-81
2021/03/21 12:11:27;;;;;;;8.63;5.15;;;;;;;1.03;61.59;96066.98;1816912;78;21114;-82
2021/03/21 12:13:53;;;;;;;8.75;5.50;;;;;;;1.08;61.49;96064.02;1813368;78;21196;-81
2021/03/21 12:16:42;;;;;;;7.85;6.00;;;;;;;1.09;61.86;96052.37;1815500;78;21105;-81
2021/03/21 12:19:31;;;;;;;6.30;4.83;;;;;;;1.07;62.00;96050.89;1815605;78;21109;-82
2021/03/21 12:22:08;;;;;;;8.50;5.92;;;;;;;1.15;62.25;96044.66;1813656;78;21098;-82
2021/03/21 12:24:34;;;;;;;10.10;7.42;;;;;;;1.20;62.52;96025.88;1816399;78;21125;-82
2021/03/21 12:27:06;;;;;;;9.85;6.83;;;;;;;1.19;62.43;96014.83;1815461;78;21153;-82
2021/03/21 12:29:43;;;;;;;8.53;6.37;;;;;;;1.31;62.49;96018.56;1813331;78;21227;-82
2021/03/21 12:32:27;;;;;;;9.83;7.28;;;;;;;1.36;62.54;96020.23;1813886;78;21224;-84
2021/03/21 12:34:53;;;;;;;8.08;7.03;;;;;;;1.42;62.61;96019.22;1814910;78;21109;-85
2021/03/21 12:37:53;;;;;;;10.85;9.28;;;;;;;1.36;62.84;96017.20;1813814;78;21086;-84
2021/03/21 12:40:23;;;;;;;9.98;8.33;;;;;;;1.30;62.75;96006.23;1816716;78;21141;-85
2021/03/21 12:42:49;;;;;;;19.27;16.02;;;;;;;1.33;62.69;96006.44;1794925;78;21320;-82
2021/03/21 12:45:23;;;;;;;29.87;22.42;;;;;;;1.22;63.26;95998.87;1813805;78;21110;-82
2021/03/21 12:48:02;;;;;;;9.83;8.78;;;;;;;1.28;63.41;96004.25;1814779;78;21113;-81
2021/03/21 12:50:36;;;;;;;9.38;7.25;;;;;;;1.33;63.55;95991.07;1813105;78;21138;-82
2021/03/21 12:53:10;;;;;;;8.85;6.47;;;;;;;1.32;63.04;95980.02;1813477;78;21108;-83
2021/03/21 12:55:36;;;;;;;6.53;4.47;;;;;;;1.20;63.26;95981.89;1813372;78;21161;-83
2021/03/21 12:58:02;;;;;;;9.00;7.20;;;;;;;1.13;63.31;95976.95;1813739;78;21110;-83
2021/03/21 13:00:32;;;;;;;14.30;8.53;;;;;;;1.16;63.40;95978.47;1812199;78;21121;-83
2021/03/21 13:03:00;;;;;;;8.48;7.28;;;;;;;1.16;63.12;95984.39;1816616;78;21129;-83
2021/03/21 13:05:39;;;;;;;8.05;6.60;;;;;;;1.07;63.26;95979.25;1808599;78;21090;-83
2021/03/21 13:08:07;;;;;;;7.87;6.17;;;;;;;1.09;63.33;95978.64;1803186;78;21344;-83
2021/03/21 13:10:33;;;;;;;10.93;7.08;;;;;;;1.12;63.44;95968.95;1804884;78;21129;-83
2021/03/21 13:13:01;;;;;;;7.62;5.25;;;;;;;1.11;62.94;95972.92;1800219;78;21283;-83
2021/03/21 13:15:27;;;;;;;6.67;5.92;;;;;;;1.12;62.73;95965.11;1810596;78;21095;-83
2021/03/21 13:17:53;;;;;;;9.03;5.85;;;;;;;1.09;62.93;95969.69;1800584;78;21098;-82
2021/03/21 13:20:20;;;;;;;8.80;7.28;;;;;;;1.13;63.01;95979.98;1805510;78;21121;-82
2021/03/21 13:22:47;;;;;;;5.05;4.55;;;;;;;1.17;62.88;95977.05;1815280;78;21485;-83
2021/03/21 13:25:23;;;;;;;10.25;7.95;;;;;;;1.40;63.13;95967.34;1807663;78;21356;-84
2021/03/21 13:27:53;;;;;;;22.32;15.55;;;;;;;1.46;62.88;95971.95;1741341;82;21321;-83
2021/03/21 13:30:21;;;;;;;85.53;36.88;;;;;;;1.44;62.95;95973.80;1746251;82;21165;-83
2021/03/21 13:32:47;;;;;;;37.33;23.00;;;;;;;1.47;63.52;95976.13;1754117;81;21228;-83
2021/03/21 13:35:14;;;;;;;16.85;10.48;;;;;;;1.58;63.28;95966.19;1720656;82;21118;-83
2021/03/21 13:37:40;;;;;;;36.00;21.73;;;;;;;1.57;62.74;95958.17;1772596;80;21188;-83
2021/03/21 13:40:08;;;;;;;26.60;17.05;;;;;;;1.63;62.94;95951.24;1767746;80;21154;-83
2021/03/21 13:42:34;;;;;;;12.55;9.08;;;;;;;1.68;62.95;95946.51;1777796;79;21124;-83
2021/03/21 13:45:01;;;;;;;9.48;7.45;;;;;;;1.67;62.17;95947.45;1745464;81;21214;-84